Time;durP1;ratioP1;P1;durP2;ratioP2;P2;SDS_P1;SDS_P2;PMS_P1;PMS_P2;Temp;Humidity;BMP_temperature;BMP_pressure;BME280_temperature;BME280_humidity;BME280_pressure;Samples;Min_cycle;Max_cycle;Signal;HPM_P1;HPM_P2
2021/06/13 00:00:44;;;;;;;10.83;5.17;;;;;;;14.43;76.46;99931.24;124235;1092;103098;-76
2021/06/13 00:03:12;;;;;;;7.70;4.87;;;;;;;14.43;76.19;99944.64;124258;1093;103013;-76
2021/06/13 00:05:39;;;;;;;8.17;5.23;;;;;;;14.45;75.95;99940.94;124089;1093;114332;-76
2021/06/13 00:08:06;;;;;;;6.70;5.30;;;;;;;14.45;75.75;99940.05;124238;1093;103033;-76
2021/06/13 00:10:34;;;;;;;7.87;4.77;;;;;;;14.42;75.87;99942.89;124142;1093;114165;-75
2021/06/13 00:13:02;;;;;;;11.67;5.80;;;;;;;14.40;75.73;99939.44;124213;1093;103023;-76
2021/06/13 00:15:30;;;;;;;8.50;5.43;;;;;;;14.36;75.17;99944.93;124143;1093;114823;-75
2021/06/13 00:17:57;;;;;;;6.77;4.70;;;;;;;14.32;75.28;99948.70;124242;1093;103080;-76
2021/06/13 00:20:30;;;;;;;5.43;4.87;;;;;;;14.27;75.39;99953.41;124242;1093;103199;-75
2021/06/13 00:22:57;;;;;;;10.37;5.03;;;;;;;14.27;75.54;99950.73;124429;1093;116573;-75
2021/06/13 00:25:25;;;;;;;6.63;5.15;;;;;;;14.28;75.30;99962.34;124270;1093;103119;-75
2021/06/13 00:27:53;;;;;;;10.63;5.27;;;;;;;14.24;75.19;99955.40;124150;1093;116189;-77
2021/06/13 00:30:22;;;;;;;9.57;5.07;;;;;;;14.20;75.29;99949.31;124253;1093;103075;-75
2021/06/13 00:32:50;;;;;;;9.53;4.70;;;;;;;14.15;75.48;99951.34;124412;1093;103069;-77
2021/06/13 00:35:20;;;;;;;9.27;4.90;;;;;;;14.17;75.37;99953.01;124102;1092;115588;-76
2021/06/13 00:37:50;;;;;;;8.10;5.23;;;;;;;14.16;75.39;99948.59;124486;1092;103546;-77
2021/06/13 00:40:32;;;;;;;8.05;5.00;;;;;;;14.14;75.32;99947.81;124019;1093;115041;-75
2021/06/13 00:43:00;;;;;;;5.05;4.08;;;;;;;14.09;75.48;99947.16;124196;1093;103175;-75
2021/06/13 00:45:28;;;;;;;8.60;4.63;;;;;;;14.07;75.44;99943.67;124307;1092;115996;-76
2021/06/13 00:47:55;;;;;;;5.35;4.80;;;;;;;14.02;75.47;99948.38;124347;1093;104324;-75
2021/06/13 00:50:35;;;;;;;7.60;4.68;;;;;;;13.96;75.63;99952.23;124306;1092;103112;-77
2021/06/13 00:53:06;;;;;;;8.03;4.85;;;;;;;13.91;76.06;99956.07;124073;1093;115635;-75
2021/06/13 00:55:37;;;;;;;9.35;5.73;;;;;;;13.90;75.89;99948.97;124017;1093;103086;-76
2021/06/13 00:58:05;;;;;;;9.13;5.75;;;;;;;13.92;76.10;99949.78;124345;1093;116305;-76
2021/06/13 01:00:34;;;;;;;6.03;4.63;;;;;;;13.92;75.99;99955.14;124312;1093;102981;-76
2021/06/13 01:03:04;;;;;;;7.23;5.30;;;;;;;13.87;76.12;99950.88;124634;1093;103012;-78
2021/06/13 01:05:46;;;;;;;8.78;5.00;;;;;;;13.84;76.13;99953.67;123725;1096;114713;-76
2021/06/13 01:08:32;;;;;;;8.20;5.03;;;;;;;13.79;76.12;99955.69;124134;1096;103245;-76
2021/06/13 01:11:30;;;;;;;7.33;4.38;;;;;;;13.80;76.09;99960.11;124008;1096;114825;-75
2021/06/13 01:14:52;;;;;;;11.03;5.78;;;;;;;13.74;76.32;99964.88;124183;1096;103253;-76
2021/06/13 01:17:30;;;;;;;8.80;4.73;;;;;;;13.67;76.72;99964.30;123953;1095;114599;-76
2021/06/13 01:20:25;;;;;;;14.07;5.30;;;;;;;13.69;76.41;99965.11;124534;1096;103197;-76
2021/06/13 01:23:20;;;;;;;7.10;5.78;;;;;;;13.70;77.03;99965.03;123935;1097;114417;-76
2021/06/13 01:26:17;;;;;;;7.30;4.73;;;;;;;13.70;76.86;99966.83;124019;1096;103078;-77
2021/06/13 01:28:59;;;;;;;7.63;5.23;;;;;;;13.69;77.03;99971.32;123679;1096;114369;-75
2021/06/13 01:31:51;;;;;;;8.80;5.65;;;;;;;13.74;76.64;99968.41;124170;1095;103164;-76
2021/06/13 01:34:31;;;;;;;7.10;4.90;;;;;;;13.73;76.57;99961.35;123997;1095;114935;-76
2021/06/13 01:37:16;;;;;;;10.03;6.57;;;;;;;13.77;76.52;99956.70;123678;1099;103178;-77
2021/06/13 01:39:47;;;;;;;9.58;6.40;;;;;;;13.71;76.46;99961.42;123497;1100;115554;-78
2021/06/13 01:42:15;;;;;;;9.57;4.57;;;;;;;13.67;76.76;99958.95;123852;1096;103270;-77
2021/06/13 01:44:45;;;;;;;5.68;5.05;;;;;;;13.63;75.89;99957.36;124374;1093;103611;-77
2021/06/13 01:47:13;;;;;;;9.83;5.30;;;;;;;13.62;76.19;99964.53;124273;1093;116124;-78
2021/06/13 01:49:42;;;;;;;9.80;5.30;;;;;;;13.57;76.18;99954.95;124357;1093;103173;-76
2021/06/13 01:52:11;;;;;;;10.93;5.40;;;;;;;13.55;76.23;99960.38;124173;1093;115442;-75
2021/06/13 01:54:41;;;;;;;12.33;6.50;;;;;;;13.57;76.40;99963.86;124255;1093;103066;-76
2021/06/13 01:57:09;;;;;;;9.03;5.30;;;;;;;13.59;75.82;99961.11;124537;1093;103191;-76
2021/06/13 01:59:51;;;;;;;14.35;5.13;;;;;;;13.54;75.81;99962.20;124127;1093;113765;-77
2021/06/13 02:02:19;;;;;;;7.20;5.17;;;;;;;13.52;75.88;99960.53;124230;1093;103100;-77
2021/06/13 02:05:01;;;;;;;9.43;6.20;;;;;;;13.50;76.11;99967.73;124211;1093;114627;-75
2021/06/13 02:07:28;;;;;;;8.83;5.33;;;;;;;13.51;76.01;99969.48;124250;1093;103491;-74
2021/06/13 02:09:56;;;;;;;8.80;5.28;;;;;;;13.47;75.72;99967.89;124113;1093;116080;-75
2021/06/13 02:12:23;;;;;;;9.80;5.45;;;;;;;13.43;75.89;99966.30;124253;1093;103050;-76
2021/06/13 02:14:51;;;;;;;14.95;5.95;;;;;;;13.41;75.72;99963.70;124222;1092;103035;-75
2021/06/13 02:17:18;;;;;;;8.38;4.73;;;;;;;13.42;75.79;99967.22;124145;1093;116258;-75
2021/06/13 02:19:46;;;;;;;8.13;5.10;;;;;;;13.46;75.34;99969.71;124308;1093;103086;-76
2021/06/13 02:22:27;;;;;;;9.60;4.65;;;;;;;13.44;75.17;99971.57;124274;1092;116150;-75
2021/06/13 02:24:55;;;;;;;12.33;5.48;;;;;;;13.41;75.35;99979.75;124346;1091;103249;-75
2021/06/13 02:27:38;;;;;;;10.38;4.63;;;;;;;13.37;74.80;99972.80;124197;1093;115002;-76
2021/06/13 02:30:09;;;;;;;8.73;4.90;;;;;;;13.36;75.28;99981.75;124273;1093;103044;-75
2021/06/13 02:32:41;;;;;;;11.93;5.85;;;;;;;13.33;75.48;99981.86;124438;1093;103097;-74
2021/06/13 02:35:11;;;;;;;16.05;5.63;;;;;;;13.21;75.23;99981.45;127645;1092;114685;-75
2021/06/13 02:37:41;;;;;;;9.28;5.75;;;;;;;13.21;75.43;99988.63;127677;1093;101762;-76
2021/06/13 02:40:09;;;;;;;9.63;5.93;;;;;;;13.17;75.26;99985.20;125075;1093;115884;-76
2021/06/13 02:42:37;;;;;;;6.73;4.57;;;;;;;13.13;74.98;99991.63;124692;1093;103016;-75
2021/06/13 02:45:15;;;;;;;8.00;4.35;;;;;;;13.09;75.08;99992.70;124336;1092;103079;-77
2021/06/13 02:47:57;;;;;;;10.25;4.90;;;;;;;13.03;75.62;99993.84;124216;1092;207633;-77
2021/06/13 02:50:26;;;;;;;10.25;5.40;;;;;;;13.00;75.20;99993.09;124208;1093;103097;-76
2021/06/13 02:53:23;;;;;;;8.93;4.77;;;;;;;12.98;75.37;99998.51;124243;1092;114796;-76
2021/06/13 02:56:08;;;;;;;8.28;4.88;;;;;;;12.93;75.47;99999.62;124324;1093;103135;-76
2021/06/13 02:58:44;;;;;;;8.53;4.35;;;;;;;12.94;76.07;99993.34;124128;1093;114481;-76
2021/06/13 03:01:17;;;;;;;5.20;4.05;;;;;;;12.95;75.68;100011.13;124405;1093;103083;-77
2021/06/13 03:04:01;;;;;;;8.53;4.40;;;;;;;12.98;75.09;100010.98;124372;1092;114754;-75
2021/06/13 03:06:30;;;;;;;6.43;4.10;;;;;;;12.99;75.78;100018.08;124290;1093;103070;-75
2021/06/13 03:08:58;;;;;;;7.93;4.43;;;;;;;12.95;75.39;100014.66;124215;1093;103245;-78
2021/06/13 03:11:26;;;;;;;10.25;4.65;;;;;;;12.99;75.30;100020.75;124076;1093;115872;-74
2021/06/13 03:13:57;;;;;;;8.77;4.47;;;;;;;13.00;75.58;100026.03;124159;1092;103001;-75
2021/06/13 03:16:25;;;;;;;8.80;4.23;;;;;;;12.99;75.19;100018.08;124221;1092;114462;-75
2021/06/13 03:18:53;;;;;;;7.20;4.90;;;;;;;12.86;74.91;100010.59;124803;1093;103130;-75
2021/06/13 03:21:21;;;;;;;9.73;4.83;;;;;;;12.88;75.27;100026.55;124297;1093;103013;-75
2021/06/13 03:23:48;;;;;;;7.10;4.30;;;;;;;12.91;75.48;100030.91;124236;1093;115840;-77
2021/06/13 03:26:30;;;;;;;12.18;4.73;;;;;;;12.94;75.48;100039.67;124202;1092;103049;-76
2021/06/13 03:28:59;;;;;;;8.00;4.77;;;;;;;12.96;75.47;100037.78;124075;1093;114759;-76
2021/06/13 03:31:27;;;;;;;5.60;3.60;;;;;;;12.96;74.90;100039.60;124176;1093;103412;-76
2021/06/13 03:33:56;;;;;;;6.40;4.40;;;;;;;12.98;74.91;100035.94;124134;1093;114845;-75
2021/06/13 03:36:24;;;;;;;10.07;5.37;;;;;;;13.03;74.87;100035.72;124222;1093;103095;-77
2021/06/13 03:39:06;;;;;;;8.10;4.73;;;;;;;13.08;74.67;100041.75;124271;1092;103836;-76
2021/06/13 03:41:34;;;;;;;9.65;5.68;;;;;;;13.03;74.60;100049.09;124079;1093;115284;-76
2021/06/13 03:44:01;;;;;;;10.53;4.58;;;;;;;12.97;74.49;100049.33;124221;1093;103127;-76
2021/06/13 03:46:29;;;;;;;9.00;4.53;;;;;;;12.95;74.40;100049.41;124195;1093;114769;-76
2021/06/13 03:48:57;;;;;;;14.40;4.60;;;;;;;13.00;74.83;100047.41;124262;1093;103179;-75
2021/06/13 03:51:25;;;;;;;10.50;4.43;;;;;;;13.02;74.32;100060.70;124254;1093;103121;-76
2021/06/13 03:53:57;;;;;;;8.90;4.43;;;;;;;12.98;74.45;100061.77;124268;1092;115470;-76
2021/06/13 03:56:30;;;;;;;8.20;4.90;;;;;;;12.98;74.20;100061.77;124958;1093;102983;-78
2021/06/13 03:58:57;;;;;;;7.10;4.53;;;;;;;13.04;74.45;100073.08;124467;1093;114651;-75
2021/06/13 04:01:25;;;;;;;11.08;3.73;;;;;;;13.03;74.15;100062.45;124341;1093;103447;-76
2021/06/13 04:03:54;;;;;;;5.48;3.70;;;;;;;13.00;74.41;100074.14;124160;1092;114956;-77
2021/06/13 04:06:23;;;;;;;4.83;3.80;;;;;;;13.04;73.96;100070.41;124300;1093;103140;-75
2021/06/13 04:08:52;;;;;;;6.50;3.43;;;;;;;13.10;74.38;100071.98;124497;1093;103218;-74
2021/06/13 04:11:21;;;;;;;8.15;4.25;;;;;;;13.14;73.93;100072.69;124888;1093;115932;-75
2021/06/13 04:13:50;;;;;;;10.93;4.03;;;;;;;13.17;74.42;100073.44;124495;1093;103047;-75
2021/06/13 04:16:20;;;;;;;9.27;4.03;;;;;;;13.16;74.12;100073.52;124224;1093;114964;-76
2021/06/13 04:18:48;;;;;;;9.43;4.10;;;;;;;13.17;73.75;100076.12;124359;1093;103404;-74
2021/06/13 04:21:16;;;;;;;6.73;4.30;;;;;;;13.24;73.82;100081.22;124271;1092;103034;-76
2021/06/13 04:23:45;;;;;;;5.87;4.53;;;;;;;13.26;74.16;100076.66;124250;1093;114663;-75
2021/06/13 04:26:14;;;;;;;6.63;3.90;;;;;;;13.30;73.67;100079.16;124942;1093;103473;-76
2021/06/13 04:28:43;;;;;;;9.63;4.17;;;;;;;13.34;73.59;100078.08;124160;1092;116287;-76
2021/06/13 04:31:25;;;;;;;9.77;4.80;;;;;;;13.44;73.87;100081.25;124208;1093;103127;-75
2021/06/13 04:33:54;;;;;;;9.70;4.40;;;;;;;13.52;73.85;100087.13;124072;1092;114884;-75
2021/06/13 04:36:22;;;;;;;6.57;4.70;;;;;;;13.52;73.25;100095.16;124280;1093;102973;-74
2021/06/13 04:38:50;;;;;;;7.23;3.83;;;;;;;13.50;72.88;100083.67;124298;1093;103097;-74
2021/06/13 04:41:17;;;;;;;10.28;4.20;;;;;;;13.49;72.79;100089.95;124248;1093;114620;-76
2021/06/13 04:43:46;;;;;;;8.95;3.68;;;;;;;13.47;72.50;100097.16;124658;1093;102995;-75
2021/06/13 04:46:17;;;;;;;7.80;4.95;;;;;;;13.41;72.92;100092.09;124374;1093;116498;-74
2021/06/13 04:48:45;;;;;;;7.80;4.70;;;;;;;13.43;72.83;100103.58;124252;1093;103320;-75
2021/06/13 04:51:12;;;;;;;8.37;4.07;;;;;;;13.53;73.31;100104.93;124409;1093;103028;-77
2021/06/13 04:53:51;;;;;;;12.15;4.98;;;;;;;13.51;72.34;100098.76;124359;1093;116171;-74
2021/06/13 04:57:10;;;;;;;15.10;5.13;;;;;;;13.46;72.84;100108.82;124268;1093;103167;-76
2021/06/13 04:59:37;;;;;;;10.40;4.03;;;;;;;13.41;72.64;100113.49;124199;1092;116114;-76
2021/06/13 05:02:05;;;;;;;6.03;3.90;;;;;;;13.36;72.29;100111.00;124250;1092;103502;-74
2021/06/13 05:04:47;;;;;;;8.33;4.40;;;;;;;13.36;72.76;100118.16;124261;1092;114761;-75
2021/06/13 05:07:14;;;;;;;6.43;3.78;;;;;;;13.35;72.82;100122.59;124368;1093;103165;-74
2021/06/13 05:09:44;;;;;;;9.23;4.60;;;;;;;13.39;72.78;100120.70;124298;1093;114765;-75
2021/06/13 05:12:11;;;;;;;6.08;4.48;;;;;;;13.38;72.52;100127.86;124447;1093;103101;-76
2021/06/13 05:14:40;;;;;;;4.83;4.17;;;;;;;13.38;73.11;100121.63;124401;1093;102981;-75
2021/06/13 05:17:08;;;;;;;10.93;4.47;;;;;;;13.36;73.38;100128.86;124259;1093;115442;-75
2021/06/13 05:19:35;;;;;;;9.53;4.80;;;;;;;13.36;73.65;100129.72;124365;1093;103265;-76
2021/06/13 05:22:09;;;;;;;10.47;4.00;;;;;;;13.32;73.88;100120.05;124290;1093;116477;-75
2021/06/13 05:24:36;;;;;;;8.55;4.48;;;;;;;13.31;74.63;100120.98;124437;1093;103737;-74
2021/06/13 05:27:05;;;;;;;11.30;3.70;;;;;;;13.35;75.15;100143.13;124463;1093;102989;-74
2021/06/13 05:29:32;;;;;;;6.33;3.80;;;;;;;13.36;75.06;100129.72;124336;1093;114759;-77
2021/06/13 05:31:59;;;;;;;11.40;4.53;;;;;;;13.34;75.15;100136.92;124247;1093;103067;-74
2021/06/13 05:34:27;;;;;;;9.63;4.83;;;;;;;13.33;75.16;100136.99;124236;1093;115218;-75
2021/06/13 05:37:08;;;;;;;6.43;4.07;;;;;;;13.31;74.75;100145.05;124214;1093;103003;-76
2021/06/13 05:39:35;;;;;;;9.23;4.67;;;;;;;13.32;74.95;100140.59;124337;1093;103192;-75
2021/06/13 05:42:03;;;;;;;7.95;4.18;;;;;;;13.35;75.20;100140.45;124277;1093;115326;-76
2021/06/13 05:44:30;;;;;;;14.43;5.27;;;;;;;13.33;74.65;100145.02;124443;1093;103092;-75
2021/06/13 05:47:00;;;;;;;6.98;4.25;;;;;;;13.33;74.91;100153.90;124708;1093;116278;-76
2021/06/13 05:49:27;;;;;;;9.80;4.10;;;;;;;13.38;75.14;100153.72;124340;1093;103145;-76
2021/06/13 05:51:55;;;;;;;8.20;4.30;;;;;;;13.46;75.01;100150.73;124077;1093;115975;-75
2021/06/13 05:54:22;;;;;;;9.83;5.37;;;;;;;13.50;74.34;100157.69;124306;1093;103148;-75
2021/06/13 05:56:50;;;;;;;9.28;3.50;;;;;;;13.59;74.83;100151.09;124394;1093;103036;-77
2021/06/13 05:59:17;;;;;;;12.33;4.47;;;;;;;13.68;74.56;100151.55;124149;1093;116069;-77
2021/06/13 06:01:45;;;;;;;8.98;3.83;;;;;;;13.79;74.53;100158.25;124248;1093;103308;-75
2021/06/13 06:04:13;;;;;;;11.97;4.83;;;;;;;13.80;73.51;100160.86;124089;1093;114915;-76
2021/06/13 06:06:41;;;;;;;6.48;4.70;;;;;;;13.88;74.06;100163.20;124388;1093;102998;-76
2021/06/13 06:09:08;;;;;;;5.53;3.60;;;;;;;13.96;73.87;100161.05;124374;1092;103092;-76
2021/06/13 06:11:41;;;;;;;6.85;4.58;;;;;;;14.05;73.78;100162.47;124245;1092;114553;-76
2021/06/13 06:14:10;;;;;;;7.87;4.20;;;;;;;14.03;72.96;100167.90;124398;1092;103020;-76
2021/06/13 06:16:51;;;;;;;9.85;3.85;;;;;;;14.04;72.72;100164.26;124099;1093;116165;-75
2021/06/13 06:19:19;;;;;;;7.73;4.73;;;;;;;14.05;72.82;100168.68;124365;1093;103238;-75
2021/06/13 06:21:47;;;;;;;8.00;3.97;;;;;;;14.19;73.07;100164.52;124296;1093;115275;-75
2021/06/13 06:24:14;;;;;;;11.45;3.93;;;;;;;14.36;73.16;100174.47;124398;1093;103589;-77
2021/06/13 06:26:42;;;;;;;7.77;3.50;;;;;;;14.40;71.68;100178.74;124187;1093;102985;-75
2021/06/13 06:29:09;;;;;;;6.73;3.13;;;;;;;14.46;71.58;100170.44;124162;1093;116533;-78
2021/06/13 06:31:37;;;;;;;8.43;4.70;;;;;;;14.62;70.84;100175.06;124374;1093;103170;-74
2021/06/13 06:34:05;;;;;;;9.93;3.55;;;;;;;14.65;70.32;100186.55;124207;1092;116335;-76
2021/06/13 06:36:33;;;;;;;5.38;3.60;;;;;;;14.63;70.53;100179.48;124247;1093;103079;-76
2021/06/13 06:39:00;;;;;;;6.95;4.18;;;;;;;14.57;70.74;100190.48;124236;1093;103014;-75
2021/06/13 06:41:28;;;;;;;9.23;4.40;;;;;;;14.68;71.03;100181.03;124252;1093;114412;-76
2021/06/13 06:43:55;;;;;;;12.20;4.70;;;;;;;14.76;69.34;100183.36;124366;1093;103052;-75
2021/06/13 06:46:23;;;;;;;12.93;3.80;;;;;;;14.90;69.87;100184.52;124131;1093;114944;-76
2021/06/13 06:48:50;;;;;;;9.00;4.08;;;;;;;14.97;69.04;100185.98;124224;1093;103105;-76
2021/06/13 06:51:20;;;;;;;9.67;3.77;;;;;;;15.03;68.75;100185.66;124265;1093;103559;-77
2021/06/13 06:53:48;;;;;;;7.45;4.43;;;;;;;15.13;68.99;100178.91;124237;1093;115068;-76
2021/06/13 06:56:30;;;;;;;6.88;4.20;;;;;;;15.24;68.87;100181.06;124310;1092;103128;-75
2021/06/13 06:58:57;;;;;;;10.75;3.78;;;;;;;15.26;69.29;100186.35;124224;1092;115636;-76
2021/06/13 07:01:25;;;;;;;9.43;4.57;;;;;;;15.27;69.31;100182.73;124288;1093;103167;-76
2021/06/13 07:03:54;;;;;;;10.10;4.60;;;;;;;15.31;68.58;100184.31;124259;1092;115246;-75
2021/06/13 07:06:21;;;;;;;5.93;3.77;;;;;;;15.35;67.75;100193.95;124347;1093;102978;-76
2021/06/13 07:08:48;;;;;;;8.65;4.10;;;;;;;15.36;67.98;100187.64;124316;1092;103149;-76
2021/06/13 07:11:15;;;;;;;7.90;4.47;;;;;;;15.42;67.64;100190.03;124197;1093;114530;-74
2021/06/13 07:13:46;;;;;;;9.97;4.33;;;;;;;15.41;67.58;100188.29;124272;1093;103087;-77
2021/06/13 07:16:27;;;;;;;8.90;4.00;;;;;;;15.46;67.51;100193.41;127480;1096;114837;-76
2021/06/13 07:18:55;;;;;;;7.55;3.85;;;;;;;15.49;67.07;100194.13;127601;1095;102011;-75
2021/06/13 07:21:36;;;;;;;6.17;4.23;;;;;;;15.56;66.82;100200.06;127553;1095;101029;-76
2021/06/13 07:24:06;;;;;;;10.33;4.28;;;;;;;15.76;67.74;100199.05;127497;1096;114527;-75
2021/06/13 07:26:34;;;;;;;7.83;4.53;;;;;;;15.83;66.96;100207.69;127575;1096;102218;-75
2021/06/13 07:29:02;;;;;;;8.95;4.08;;;;;;;15.96;66.68;100210.63;124646;1092;115701;-75
2021/06/13 07:31:29;;;;;;;15.95;4.60;;;;;;;16.02;65.33;100199.54;124263;1093;103294;-75
2021/06/13 07:34:11;;;;;;;10.60;4.53;;;;;;;15.98;65.39;100211.39;124110;1096;116570;-76
2021/06/13 07:36:39;;;;;;;14.90;5.68;;;;;;;16.05;65.56;100205.63;124111;1096;103336;-77
2021/06/13 07:39:06;;;;;;;12.53;4.70;;;;;;;16.17;65.04;100206.80;124169;1096;103214;-74
2021/06/13 07:41:34;;;;;;;8.95;3.80;;;;;;;16.26;66.39;100212.64;123936;1096;115671;-76
2021/06/13 07:44:02;;;;;;;10.20;3.50;;;;;;;16.35;63.77;100212.15;124263;1095;103141;-76
2021/06/13 07:46:29;;;;;;;11.30;4.40;;;;;;;16.35;64.55;100217.52;124122;1095;114780;-76
2021/06/13 07:48:57;;;;;;;9.03;4.73;;;;;;;16.28;63.61;100227.73;124215;1096;103215;-77
2021/06/13 07:51:24;;;;;;;7.43;3.97;;;;;;;16.20;63.86;100235.34;124094;1096;103183;-75
2021/06/13 07:53:53;;;;;;;9.40;5.00;;;;;;;16.13;63.43;100237.47;123766;1096;117419;-74
2021/06/13 07:56:21;;;;;;;13.00;5.65;;;;;;;15.98;63.52;100241.83;124232;1095;103256;-75
2021/06/13 07:58:48;;;;;;;9.50;3.98;;;;;;;16.01;63.93;100255.09;123977;1096;116219;-75
2021/06/13 08:01:30;;;;;;;7.65;4.23;;;;;;;16.10;63.78;100252.88;123919;1099;103083;-76
2021/06/13 08:03:58;;;;;;;10.17;5.03;;;;;;;16.12;63.48;100248.30;123579;1100;114728;-76
2021/06/13 08:06:26;;;;;;;9.10;4.95;;;;;;;16.11;63.69;100246.56;123732;1098;103239;-76
2021/06/13 08:08:53;;;;;;;12.10;5.18;;;;;;;16.07;63.79;100251.22;123789;1099;103460;-76
2021/06/13 08:11:21;;;;;;;12.63;6.10;;;;;;;16.02;64.28;100254.16;123665;1096;115118;-76
2021/06/13 08:13:49;;;;;;;11.93;4.65;;;;;;;16.11;64.61;100252.79;123994;1096;103172;-75
2021/06/13 08:16:16;;;;;;;6.58;4.73;;;;;;;16.11;64.08;100255.48;123789;1096;116370;-76
2021/06/13 08:18:44;;;;;;;7.67;4.60;;;;;;;16.14;64.36;100260.72;123690;1093;103026;-75
2021/06/13 08:21:12;;;;;;;6.93;4.83;;;;;;;16.18;63.58;100266.77;124252;1092;103060;-76
2021/06/13 08:23:39;;;;;;;10.83;5.33;;;;;;;16.28;63.05;100262.67;124086;1093;114612;-76
2021/06/13 08:26:07;;;;;;;15.30;5.57;;;;;;;16.43;63.22;100260.98;124162;1093;103002;-75
2021/06/13 08:28:48;;;;;;;7.57;4.67;;;;;;;16.61;63.59;100258.30;124356;1096;114977;-77
2021/06/13 08:31:16;;;;;;;13.33;5.73;;;;;;;16.72;62.22;100254.04;124169;1096;103029;-75
2021/06/13 08:33:43;;;;;;;6.93;3.93;;;;;;;16.92;61.67;100256.65;124070;1096;116197;-76
2021/06/13 08:36:11;;;;;;;8.78;5.18;;;;;;;17.17;61.34;100261.53;123793;1096;103355;-78
2021/06/13 08:38:38;;;;;;;13.67;7.27;;;;;;;17.21;59.79;100258.56;123881;1096;103131;-78
2021/06/13 08:41:05;;;;;;;8.00;4.57;;;;;;;17.08;60.32;100270.12;124146;1095;114857;-78
2021/06/13 08:43:34;;;;;;;6.75;4.10;;;;;;;17.01;60.54;100272.28;124494;1096;103178;-77
2021/06/13 08:46:04;;;;;;;9.60;5.80;;;;;;;16.87;60.90;100276.56;124025;1096;116379;-75
2021/06/13 08:48:32;;;;;;;6.93;4.50;;;;;;;16.75;61.24;100279.91;124048;1096;103054;-75
2021/06/13 08:51:01;;;;;;;7.07;5.00;;;;;;;16.60;61.59;100278.91;124314;1097;103627;-78
2021/06/13 08:53:29;;;;;;;6.68;4.68;;;;;;;16.59;62.00;100292.45;124090;1095;116074;-76
2021/06/13 08:55:57;;;;;;;9.53;5.03;;;;;;;16.54;61.73;100288.19;124442;1096;103118;-77
2021/06/13 08:58:39;;;;;;;7.10;4.87;;;;;;;16.53;62.19;100286.44;123501;1100;115764;-75
2021/06/13 09:01:07;;;;;;;13.73;5.47;;;;;;;16.55;62.16;100294.41;123793;1096;103074;-77
2021/06/13 09:03:48;;;;;;;12.30;5.93;;;;;;;16.58;62.15;100302.34;123443;1096;115170;-78
2021/06/13 09:06:16;;;;;;;7.83;4.90;;;;;;;16.55;62.75;100307.86;123942;1096;103208;-77
2021/06/13 09:08:46;;;;;;;7.93;4.73;;;;;;;16.55;62.43;100310.55;124144;1095;103023;-76
2021/06/13 09:11:31;;;;;;;14.70;6.45;;;;;;;16.48;62.36;100320.75;123791;1096;115958;-78
2021/06/13 09:14:13;;;;;;;18.93;5.77;;;;;;;16.44;63.00;100315.63;124207;1095;103295;-78
2021/06/13 09:16:43;;;;;;;6.40;5.43;;;;;;;16.41;62.94;100318.46;124371;1093;116384;-76
2021/06/13 09:19:11;;;;;;;7.53;5.15;;;;;;;16.42;62.85;100323.78;124528;1093;102998;-77
2021/06/13 09:21:40;;;;;;;10.03;5.63;;;;;;;16.36;63.50;100321.41;124404;1093;103087;-75
2021/06/13 09:24:21;;;;;;;7.77;4.30;;;;;;;16.34;63.76;100316.11;124311;1092;115988;-79
2021/06/13 09:26:50;;;;;;;8.30;5.15;;;;;;;16.31;62.99;100327.00;124458;1093;103099;-75
2021/06/13 09:29:17;;;;;;;10.73;4.20;;;;;;;16.32;63.57;100330.58;124315;1093;114336;-77
2021/06/13 09:31:45;;;;;;;9.13;5.30;;;;;;;16.33;63.08;100335.01;124340;1093;103080;-77
2021/06/13 09:34:16;;;;;;;9.35;5.23;;;;;;;16.30;63.55;100337.83;124573;1093;116104;-76
2021/06/13 09:36:44;;;;;;;10.17;5.60;;;;;;;16.31;63.65;100335.06;124765;1093;103066;-76
2021/06/13 09:39:13;;;;;;;20.98;13.05;;;;;;;16.38;63.81;100340.98;124153;1093;103036;-76
2021/06/13 09:41:43;;;;;;;9.80;5.37;;;;;;;16.43;63.38;100340.77;124249;1093;116665;-78
2021/06/13 09:44:14;;;;;;;11.15;5.25;;;;;;;16.49;63.09;100341.31;124440;1093;103361;-76
2021/06/13 09:46:45;;;;;;;10.10;4.25;;;;;;;16.57;63.36;100350.79;124858;1093;116503;-76
2021/06/13 09:49:15;;;;;;;10.75;5.20;;;;;;;16.61;62.93;100350.56;124388;1093;103095;-76
2021/06/13 09:51:47;;;;;;;10.08;4.38;;;;;;;16.64;63.16;100355.77;124855;1092;103018;-75
2021/06/13 09:54:24;;;;;;;10.27;4.33;;;;;;;16.67;62.39;100344.88;124538;1093;115187;-74
2021/06/13 09:56:56;;;;;;;7.23;4.93;;;;;;;16.79;62.57;100359.47;124721;1093;102985;-76
2021/06/13 09:59:32;;;;;;;12.27;5.67;;;;;;;16.85;62.27;100353.77;124349;1093;116043;-76
2021/06/13 10:02:01;;;;;;;12.18;4.70;;;;;;;16.94;61.40;100356.95;124439;1093;103145;-74
2021/06/13 10:04:40;;;;;;;7.97;3.90;;;;;;;17.02;61.70;100349.33;124317;1093;115064;-77
2021/06/13 10:07:17;;;;;;;10.17;5.23;;;;;;;17.27;61.48;100353.38;124465;1093;103164;-75
2021/06/13 10:09:58;;;;;;;11.43;4.00;;;;;;;17.37;60.90;100342.02;124055;1096;116690;-79
2021/06/13 10:12:25;;;;;;;7.63;4.30;;;;;;;17.36;60.16;100355.57;124137;1095;103182;-75
2021/06/13 10:14:53;;;;;;;8.00;3.70;;;;;;;17.29;60.91;100355.05;123882;1096;103482;-77
2021/06/13 10:17:31;;;;;;;9.58;5.33;;;;;;;17.21;60.12;100366.22;124158;1096;114802;-77
2021/06/13 10:20:24;;;;;;;11.53;5.35;;;;;;;17.14;60.82;100362.14;123801;1096;103220;-77
2021/06/13 10:22:52;;;;;;;7.83;4.48;;;;;;;17.11;60.32;100367.67;123902;1096;116513;-76
2021/06/13 10:25:21;;;;;;;9.63;4.10;;;;;;;17.03;60.97;100367.22;124176;1096;103115;-76
2021/06/13 10:27:49;;;;;;;10.75;4.40;;;;;;;16.98;61.35;100369.28;123893;1096;103179;-77
2021/06/13 10:30:17;;;;;;;11.07;4.67;;;;;;;16.91;61.57;100379.50;123997;1096;115691;-76
2021/06/13 10:32:44;;;;;;;5.80;4.30;;;;;;;16.88;62.36;100376.95;124305;1095;103127;-79
2021/06/13 10:35:12;;;;;;;10.63;5.23;;;;;;;16.84;62.22;100378.07;123807;1096;114574;-77
2021/06/13 10:37:39;;;;;;;10.83;4.93;;;;;;;16.82;62.29;100382.64;123694;1095;103118;-76
2021/06/13 10:40:21;;;;;;;10.10;4.97;;;;;;;16.84;62.95;100383.45;123981;1096;115875;-75
2021/06/13 10:42:49;;;;;;;8.90;4.47;;;;;;;16.88;63.05;100385.02;124007;1096;103179;-76
2021/06/13 10:45:17;;;;;;;7.93;4.88;;;;;;;16.93;63.17;100384.80;124281;1095;103096;-75
2021/06/13 10:48:06;;;;;;;7.88;4.98;;;;;;;16.87;62.94;100377.89;124183;1093;115380;-76
2021/06/13 10:50:38;;;;;;;11.90;5.70;;;;;;;16.84;63.20;100389.69;124282;1093;103031;-76
2021/06/13 10:53:06;;;;;;;9.65;4.35;;;;;;;16.86;62.84;100389.59;124306;1092;114886;-77
2021/06/13 10:55:53;;;;;;;9.63;5.48;;;;;;;16.86;62.76;100389.59;124425;1092;103004;-77
2021/06/13 10:58:50;;;;;;;10.38;5.70;;;;;;;16.88;63.35;100396.64;124118;1093;116560;-76
2021/06/13 11:01:29;;;;;;;11.63;4.43;;;;;;;16.91;62.29;100395.64;124507;1093;103071;-78
2021/06/13 11:04:06;;;;;;;14.57;5.57;;;;;;;16.98;61.99;100396.19;124217;1093;116155;-78
2021/06/13 11:06:37;;;;;;;10.33;4.88;;;;;;;17.11;60.81;100391.89;124227;1093;103255;-78
2021/06/13 11:09:06;;;;;;;10.67;5.47;;;;;;;17.22;60.44;100388.64;124424;1093;103194;-75
2021/06/13 11:11:39;;;;;;;11.65;4.35;;;;;;;17.27;59.17;100396.45;125513;1093;114454;-77
2021/06/13 11:14:29;;;;;;;8.40;4.00;;;;;;;17.34;59.77;100392.45;124456;1093;103044;-76
2021/06/13 11:16:58;;;;;;;9.40;4.33;;;;;;;17.46;59.76;100396.30;124863;1093;116045;-78
2021/06/13 11:19:40;;;;;;;8.77;4.53;;;;;;;17.63;59.23;100384.60;124168;1096;103176;-76
2021/06/13 11:22:17;;;;;;;6.47;3.83;;;;;;;17.82;58.76;100393.39;124228;1093;115896;-76
2021/06/13 11:24:59;;;;;;;4.78;4.05;;;;;;;17.93;57.74;100386.56;124215;1096;103174;-77
2021/06/13 11:27:30;;;;;;;12.08;4.15;;;;;;;17.98;58.56;100382.64;124204;1096;103341;-77
2021/06/13 11:30:00;;;;;;;10.30;4.73;;;;;;;17.98;56.54;100388.03;124232;1094;115024;-77